createdAt,value
2023-03-06T00:00:22.920Z,95451.81
2023-03-06T00:02:52.180Z,95449.69
2023-03-06T00:05:20.380Z,95441.69
2023-03-06T00:07:48.456Z,95448.59
2023-03-06T00:10:19.748Z,95439.56
2023-03-06T00:12:47.470Z,95432.13
2023-03-06T00:15:15.633Z,95427.59
2023-03-06T00:17:43.388Z,95431.03
2023-03-06T00:20:12.686Z,95424.91
2023-03-06T00:22:40.984Z,95422.50
2023-03-06T00:25:13.188Z,95420.69
2023-03-06T00:27:42.855Z,95425.75
2023-03-06T00:30:13.997Z,95425.75
2023-03-06T00:32:43.641Z,95419.34
2023-03-06T00:35:11.954Z,95412.44
2023-03-06T00:37:40.360Z,95411.63
2023-03-06T00:40:09.924Z,95410.84
2023-03-06T00:42:37.721Z,95412.44
2023-03-06T00:45:08.136Z,95408.72
2023-03-06T00:47:35.872Z,95399.16
2023-03-06T00:50:03.741Z,95395.94
2023-03-06T00:52:31.710Z,95395.44
2023-03-06T00:54:59.490Z,95391.69
2023-03-06T00:57:27.223Z,95391.69
2023-03-06T00:59:55.014Z,95387.44
2023-03-06T01:02:26.772Z,95382.13
2023-03-06T01:04:55.537Z,95373.09
2023-03-06T01:07:23.394Z,95361.34
2023-03-06T01:09:51.760Z,95358.41
2023-03-06T01:12:20.911Z,95345.38
2023-03-06T01:14:52.628Z,95344.59
2023-03-06T01:17:20.438Z,95343.78
2023-03-06T01:19:49.515Z,95338.47
2023-03-06T01:22:17.222Z,95337.94
2023-03-06T01:24:44.957Z,95332.09
2023-03-06T01:27:12.714Z,95330.78
2023-03-06T01:29:40.409Z,95326.53
2023-03-06T01:32:08.792Z,95319.88
2023-03-06T01:34:36.481Z,95307.34
2023-03-06T01:37:05.591Z,95310.78
2023-03-06T01:39:33.322Z,95307.09
2023-03-06T01:42:01.037Z,95307.09
2023-03-06T01:44:30.036Z,95307.13
2023-03-06T01:46:57.762Z,95299.69
2023-03-06T01:49:32.316Z,95288.78
2023-03-06T01:52:09.951Z,95289.56
2023-03-06T01:54:42.964Z,95291.44
2023-03-06T01:57:14.036Z,95289.34
2023-03-06T01:59:43.953Z,95288.03
2023-03-06T02:02:13.666Z,95287.47
2023-03-06T02:04:44.116Z,95284.25
2023-03-06T02:07:12.423Z,95271.53
2023-03-06T02:09:41.552Z,95272.06
2023-03-06T02:12:12.489Z,95268.66
2023-03-06T02:14:41.077Z,95268.41
2023-03-06T02:17:11.568Z,95259.09
2023-03-06T02:19:51.209Z,95266.28
2023-03-06T02:22:20.759Z,95265.50
2023-03-06T02:24:56.014Z,95255.66
2023-03-06T02:27:26.925Z,95252.44
2023-03-06T02:29:56.536Z,95255.09
2023-03-06T02:32:24.318Z,95245.00
2023-03-06T02:34:58.845Z,95242.63
2023-03-06T02:37:33.916Z,95246.28
2023-03-06T02:40:10.265Z,95235.13
2023-03-06T02:42:39.382Z,95245.00
2023-03-06T02:45:11.766Z,95242.25
2023-03-06T02:47:40.592Z,95239.88
2023-03-06T02:50:09.495Z,95226.88
2023-03-06T02:52:37.184Z,95232.97
2023-03-06T02:55:05.843Z,95223.94
2023-03-06T02:57:33.612Z,95223.66
2023-03-06T03:00:03.133Z,95219.13
2023-03-06T03:02:30.870Z,95223.66
2023-03-06T03:04:59.384Z,95218.63
2023-03-06T03:07:27.554Z,95220.50
2023-03-06T03:09:55.961Z,95215.44
2023-03-06T03:12:24.342Z,95206.09
2023-03-06T03:14:53.073Z,95212.25
2023-03-06T03:17:22.243Z,95213.34
2023-03-06T03:19:50.281Z,95200.28
2023-03-06T03:22:19.201Z,95204.53
2023-03-06T03:24:47.105Z,95197.88
2023-03-06T03:27:15.477Z,95200.25
2023-03-06T03:29:46.389Z,95201.28
2023-03-06T03:32:14.310Z,95209.78
2023-03-06T03:34:44.663Z,95197.53
2023-03-06T03:37:13.508Z,95195.69
2023-03-06T03:39:43.125Z,95194.59
2023-03-06T03:42:11.522Z,95199.41
2023-03-06T03:44:39.645Z,95200.72
2023-03-06T03:47:08.071Z,95189.53
2023-03-06T03:49:38.838Z,95190.03
2023-03-06T03:52:08.208Z,95190.53
2023-03-06T03:54:37.244Z,95186.81
2023-03-06T03:57:05.248Z,95184.16
2023-03-06T03:59:36.425Z,95194.00
2023-03-06T04:02:16.977Z,95181.47
2023-03-06T04:04:56.708Z,95190.53
2023-03-06T04:07:25.850Z,95189.53
2023-03-06T04:09:54.820Z,95179.38
2023-03-06T04:12:22.769Z,95172.97
2023-03-06T04:14:50.568Z,95167.63
2023-03-06T04:17:18.729Z,95170.59
2023-03-06T04:19:46.603Z,95168.47
2023-03-06T04:22:15.042Z,95159.72
2023-03-06T04:24:45.570Z,95166.84
2023-03-06T04:27:13.329Z,95166.06
2023-03-06T04:29:41.091Z,95164.47
2023-03-06T04:32:09.185Z,95169.22
2023-03-06T04:34:37.202Z,95168.22
2023-03-06T04:37:05.282Z,95160.22
2023-03-06T04:39:33.097Z,95166.63
2023-03-06T04:42:02.241Z,95159.72
2023-03-06T04:44:29.960Z,95162.38
2023-03-06T04:46:57.638Z,95146.09
2023-03-06T04:49:25.353Z,95153.41
2023-03-06T04:51:53.049Z,95142.47
2023-03-06T04:54:20.814Z,95136.34
2023-03-06T04:56:48.553Z,95134.47
2023-03-06T04:59:20.050Z,95128.66
2023-03-06T05:01:47.834Z,95125.16
2023-03-06T05:04:15.634Z,95124.66
2023-03-06T05:06:43.320Z,95127.31
2023-03-06T05:09:12.680Z,95124.59
2023-03-06T05:11:40.346Z,95119.03
2023-03-06T05:14:08.040Z,95136.09
2023-03-06T05:16:37.230Z,95123.03
2023-03-06T05:19:05.033Z,95122.50
2023-03-06T05:21:32.756Z,95121.69
2023-03-06T05:24:00.479Z,95122.19
2023-03-06T05:26:28.217Z,95123.56
2023-03-06T05:28:56.246Z,95115.06
2023-03-06T05:31:25.537Z,95112.91
2023-03-06T05:33:54.652Z,95123.56
2023-03-06T05:36:23.565Z,95115.84
2023-03-06T05:38:51.384Z,95112.69
2023-03-06T05:41:19.133Z,95119.88
2023-03-06T05:43:46.824Z,95110.38
2023-03-06T05:46:14.812Z,95115.41
2023-03-06T05:48:42.557Z,95121.22
2023-03-06T05:51:12.110Z,95123.69
2023-03-06T05:53:39.802Z,95127.41
2023-03-06T05:56:09.811Z,95133.78
2023-03-06T05:58:38.241Z,95129.03
2023-03-06T06:01:10.344Z,95131.19
2023-03-06T06:03:38.510Z,95128.25
2023-03-06T06:06:07.240Z,95136.47
2023-03-06T06:08:36.682Z,95132.72
2023-03-06T06:11:05.849Z,95135.38
2023-03-06T06:13:33.754Z,95136.16
2023-03-06T06:16:01.596Z,95130.63
2023-03-06T06:18:29.383Z,95127.69
2023-03-06T06:20:57.065Z,95135.38
2023-03-06T06:23:24.727Z,95140.66
2023-03-06T06:25:53.748Z,95137.44
2023-03-06T06:28:21.414Z,95138.97
2023-03-06T06:30:51.262Z,95138.41
2023-03-06T06:33:18.974Z,95136.22
2023-03-06T06:35:49.244Z,95137.75
2023-03-06T06:38:17.442Z,95140.91
2023-03-06T06:40:53.986Z,95138.19
2023-03-06T06:43:34.009Z,95128.34
2023-03-06T06:46:23.066Z,95137.69
2023-03-06T06:48:52.465Z,95132.84
2023-03-06T06:51:20.283Z,95131.22
2023-03-06T06:53:48.048Z,95132.81
2023-03-06T06:56:15.732Z,95133.81
2023-03-06T06:58:44.868Z,95131.69
2023-03-06T07:01:14.220Z,95129.31
2023-03-06T07:03:42.191Z,95139.09
2023-03-06T07:06:11.323Z,95134.78
2023-03-06T07:08:41.283Z,95140.63
2023-03-06T07:11:12.079Z,95132.03
2023-03-06T07:13:39.813Z,95141.59
2023-03-06T07:16:09.373Z,95134.81
2023-03-06T07:18:37.450Z,95139.88
2023-03-06T07:21:05.754Z,95146.78
2023-03-06T07:23:33.527Z,95140.88
2023-03-06T07:26:01.397Z,95142.53
2023-03-06T07:28:29.201Z,95141.44
2023-03-06T07:30:57.072Z,95145.44
2023-03-06T07:33:26.418Z,95144.28
2023-03-06T07:35:57.313Z,95149.25
2023-03-06T07:38:25.058Z,95147.09
2023-03-06T07:40:53.784Z,95155.81
2023-03-06T07:43:21.505Z,95156.25
2023-03-06T07:46:05.606Z,95161.22
2023-03-06T07:48:43.127Z,95154.16
2023-03-06T07:51:16.226Z,95157.06
2023-03-06T07:53:44.741Z,95163.09
2023-03-06T07:56:13.028Z,95163.59
2023-03-06T07:58:42.421Z,95165.78
2023-03-06T08:01:14.280Z,95168.06
2023-03-06T08:03:43.974Z,95165.13
2023-03-06T08:06:14.178Z,95174.63
2023-03-06T08:08:44.391Z,95183.34
2023-03-06T08:11:13.935Z,95184.66
2023-03-06T08:13:41.984Z,95187.59
2023-03-06T08:16:10.240Z,95186.25
2023-03-06T08:18:39.596Z,95188.63
2023-03-06T08:21:10.465Z,95192.06
2023-03-06T08:23:38.784Z,95198.50
2023-03-06T08:26:10.050Z,95195.44
2023-03-06T08:28:37.758Z,95201.53
2023-03-06T08:31:09.953Z,95201.78
2023-03-06T08:33:38.412Z,95197.69
2023-03-06T08:36:08.323Z,95197.19
2023-03-06T08:38:36.026Z,95193.44
2023-03-06T08:41:04.111Z,95206.13
2023-03-06T08:43:31.845Z,95209.47
2023-03-06T08:46:00.223Z,95207.44
2023-03-06T08:48:28.124Z,95202.09
2023-03-06T08:50:55.963Z,95205.00
2023-03-06T08:53:41.794Z,95213.88
2023-03-06T08:56:16.766Z,95218.59
2023-03-06T08:58:44.615Z,95204.59
2023-03-06T09:01:15.025Z,95201.78
2023-03-06T09:03:42.810Z,95206.97
2023-03-06T09:06:10.604Z,95215.34
2023-03-06T09:08:42.927Z,95213.53
2023-03-06T09:11:11.358Z,95208.63
2023-03-06T09:13:39.128Z,95217.53
2023-03-06T09:16:07.757Z,95203.31
2023-03-06T09:18:35.654Z,95217.22
2023-03-06T09:21:03.997Z,95206.38
2023-03-06T09:23:32.070Z,95209.66
2023-03-06T09:26:02.511Z,95205.25
2023-03-06T09:28:30.374Z,95202.00
2023-03-06T09:30:58.402Z,95211.88
2023-03-06T09:33:26.252Z,95206.25
2023-03-06T09:35:56.138Z,95197.16
2023-03-06T09:38:26.548Z,95208.97
2023-03-06T09:41:04.189Z,95200.66
2023-03-06T09:43:35.423Z,95207.94
2023-03-06T09:46:08.469Z,95208.75
2023-03-06T09:48:46.453Z,95206.16
2023-03-06T09:51:17.348Z,95209.13
2023-03-06T09:53:57.825Z,95215.78
2023-03-06T09:56:31.015Z,95211.31
2023-03-06T09:59:06.010Z,95210.25
2023-03-06T10:01:38.325Z,95207.38
2023-03-06T10:04:12.561Z,95212.91
2023-03-06T10:06:48.470Z,95214.72
2023-03-06T10:09:21.123Z,95218.66
2023-03-06T10:11:57.435Z,95207.81
2023-03-06T10:14:32.717Z,95208.72
2023-03-06T10:17:01.619Z,95206.63
2023-03-06T10:19:34.649Z,95203.38
2023-03-06T10:22:07.693Z,95198.91
2023-03-06T10:24:52.132Z,95193.56
2023-03-06T10:27:36.960Z,95208.50
2023-03-06T10:30:27.759Z,95201.28
2023-03-06T10:33:02.114Z,95194.13
2023-03-06T10:35:33.267Z,95196.63
2023-03-06T10:38:06.256Z,95194.03
2023-03-06T10:40:46.206Z,95190.78
2023-03-06T10:43:15.378Z,95188.69
2023-03-06T10:45:49.689Z,95194.03
2023-03-06T10:48:24.000Z,95189.44
2023-03-06T10:50:53.286Z,95189.75
2023-03-06T10:53:23.809Z,95187.94
2023-03-06T10:55:53.883Z,95183.22
2023-03-06T10:58:26.551Z,95189.59
2023-03-06T11:01:19.380Z,95190.22
2023-03-06T11:03:47.693Z,95195.84
2023-03-06T11:06:31.410Z,95197.13
2023-03-06T11:09:16.461Z,95190.53
2023-03-06T11:11:44.190Z,95188.06
2023-03-06T11:14:19.453Z,95187.34
2023-03-06T11:16:52.984Z,95190.81
2023-03-06T11:19:24.539Z,95194.16
2023-03-06T11:22:03.749Z,95192.41
2023-03-06T11:24:39.939Z,95190.91
2023-03-06T11:27:22.159Z,95193.13
2023-03-06T11:29:52.627Z,95184.19
2023-03-06T11:32:22.477Z,95192.19
2023-03-06T11:34:53.205Z,95188.13
2023-03-06T11:37:30.988Z,95189.13
2023-03-06T11:40:07.293Z,95185.91
2023-03-06T11:42:40.126Z,95180.38
2023-03-06T11:45:25.775Z,95177.56
2023-03-06T11:48:01.647Z,95177.91
2023-03-06T11:50:34.922Z,95190.03
2023-03-06T11:53:04.657Z,95162.84
2023-03-06T11:55:49.344Z,95169.38
2023-03-06T11:58:51.821Z,95166.00
2023-03-06T12:01:28.300Z,95171.41
2023-03-06T12:04:08.328Z,95163.19
2023-03-06T12:06:48.259Z,95161.19
2023-03-06T12:09:35.188Z,95167.03
2023-03-06T12:12:23.947Z,95160.28
2023-03-06T12:15:07.755Z,95162.13
2023-03-06T12:17:54.572Z,95157.97
2023-03-06T12:20:37.669Z,95152.59
2023-03-06T12:23:19.330Z,95153.75
2023-03-06T12:25:54.058Z,95154.22
2023-03-06T12:28:51.303Z,95152.03
2023-03-06T12:31:27.810Z,95145.22
2023-03-06T12:34:11.966Z,95140.00
2023-03-06T12:36:54.601Z,95146.03
2023-03-06T12:39:33.188Z,95132.56
2023-03-06T12:42:23.081Z,95135.22
2023-03-06T12:45:18.516Z,95140.16
2023-03-06T12:47:48.418Z,95133.56
2023-03-06T12:50:25.226Z,95124.72
2023-03-06T12:52:54.893Z,95129.44
2023-03-06T12:55:25.879Z,95126.78
2023-03-06T12:57:53.960Z,95124.88
2023-03-06T13:01:04.522Z,95130.88
2023-03-06T13:03:48.541Z,95128.16
2023-03-06T13:06:49.811Z,95121.66
2023-03-06T13:09:29.097Z,95126.38
2023-03-06T13:12:19.522Z,95127.03
2023-03-06T13:14:56.170Z,95130.06
2023-03-06T13:17:38.118Z,95128.81
2023-03-06T13:20:31.561Z,95121.72
2023-03-06T13:23:43.323Z,95117.75
2023-03-06T13:26:32.695Z,95124.88
2023-03-06T13:29:00.492Z,95118.53
2023-03-06T13:31:30.106Z,95113.00
2023-03-06T13:34:00.037Z,95113.41
2023-03-06T13:36:32.598Z,95110.44
2023-03-06T13:39:09.767Z,95109.78
2023-03-06T13:41:58.898Z,95105.44
2023-03-06T13:44:49.595Z,95114.28
2023-03-06T13:48:09.740Z,95111.91
2023-03-06T13:50:38.236Z,95104.03
2023-03-06T13:53:49.402Z,95105.88
2023-03-06T13:56:34.248Z,95097.06
2023-03-06T13:59:20.150Z,95093.22
2023-03-06T14:02:00.146Z,95091.69
2023-03-06T14:04:54.346Z,95082.97
2023-03-06T14:07:27.358Z,95081.56
2023-03-06T14:10:10.641Z,95080.44
2023-03-06T14:12:43.215Z,95076.84
2023-03-06T14:15:20.363Z,95078.44
2023-03-06T14:17:58.124Z,95080.63
2023-03-06T14:20:34.132Z,95083.53
2023-03-06T14:23:27.260Z,95077.72
2023-03-06T14:26:03.427Z,95081.22
2023-03-06T14:28:34.272Z,95082.44
2023-03-06T14:31:04.482Z,95073.41
2023-03-06T14:33:35.681Z,95071.78
2023-03-06T14:36:09.555Z,95095.16
2023-03-06T14:38:43.766Z,95102.44
2023-03-06T14:41:13.164Z,95106.88
2023-03-06T14:43:43.280Z,95107.16
2023-03-06T14:46:20.588Z,95106.47
2023-03-06T14:48:49.201Z,95103.78
2023-03-06T14:51:19.366Z,95101.63
2023-03-06T14:53:49.828Z,95097.38
2023-03-06T14:56:20.212Z,95087.91
2023-03-06T14:59:00.363Z,95099.50
2023-03-06T15:01:32.439Z,95087.88
2023-03-06T15:04:01.973Z,95094.75
2023-03-06T15:06:34.617Z,95091.72
2023-03-06T15:09:07.711Z,95097.88
2023-03-06T15:11:56.776Z,95090.56
2023-03-06T15:14:32.874Z,95086.03
2023-03-06T15:17:22.603Z,95074.19
2023-03-06T15:19:51.864Z,95075.72
2023-03-06T15:22:28.191Z,95075.88
2023-03-06T15:25:15.701Z,95077.81
2023-03-06T15:27:49.658Z,95089.50
2023-03-06T15:30:29.130Z,95078.75
2023-03-06T15:33:10.647Z,95081.28
2023-03-06T15:35:39.512Z,95082.06
2023-03-06T15:38:24.773Z,95079.25
2023-03-06T15:40:57.833Z,95078.16
2023-03-06T15:43:26.042Z,95084.16
2023-03-06T15:46:00.097Z,95071.84
2023-03-06T15:48:28.737Z,95081.97
2023-03-06T15:50:56.516Z,95082.13
2023-03-06T15:53:24.302Z,95078.13
2023-03-06T15:55:53.021Z,95075.75
2023-03-06T15:58:26.604Z,95081.41
2023-03-06T16:00:55.729Z,95079.53
2023-03-06T16:03:23.477Z,95086.28
2023-03-06T16:05:51.622Z,95074.09
2023-03-06T16:08:22.102Z,95084.53
2023-03-06T16:10:51.421Z,95085.13
2023-03-06T16:13:26.600Z,95077.69
2023-03-06T16:15:56.314Z,95078.47
2023-03-06T16:18:24.084Z,95077.00
2023-03-06T16:20:51.812Z,95077.78
2023-03-06T16:23:19.494Z,95071.97
2023-03-06T16:25:49.919Z,95075.75
2023-03-06T16:28:18.440Z,95076.97
2023-03-06T16:31:18.600Z,95073.94
2023-03-06T16:33:46.640Z,95075.66
2023-03-06T16:36:17.519Z,95072.91
2023-03-06T16:38:45.305Z,95076.84
2023-03-06T16:41:13.058Z,95068.75
2023-03-06T16:43:40.963Z,95071.38
2023-03-06T16:46:15.997Z,95067.53
2023-03-06T16:48:45.473Z,95067.97
2023-03-06T16:51:16.421Z,95075.00
2023-03-06T16:53:44.594Z,95079.19
2023-03-06T16:56:13.678Z,95084.19
2023-03-06T16:58:41.945Z,95076.59
2023-03-06T17:01:10.693Z,95083.94
2023-03-06T17:03:40.021Z,95088.91
2023-03-06T17:06:16.046Z,95093.59
2023-03-06T17:08:44.254Z,95086.06
2023-03-06T17:11:12.385Z,95096.69
2023-03-06T17:13:40.472Z,95084.84
2023-03-06T17:16:09.643Z,95095.03
2023-03-06T17:18:37.437Z,95090.09
2023-03-06T17:21:05.559Z,95096.34
2023-03-06T17:23:34.653Z,95099.09
2023-03-06T17:26:07.555Z,95102.16
2023-03-06T17:28:35.808Z,95106.03
2023-03-06T17:31:11.454Z,95104.44
2023-03-06T17:33:39.233Z,95105.63
2023-03-06T17:36:07.857Z,95107.22
2023-03-06T17:38:37.221Z,95108.09
2023-03-06T17:41:06.800Z,95105.25
2023-03-06T17:43:34.744Z,95106.22
2023-03-06T17:46:06.989Z,95106.09
2023-03-06T17:48:35.110Z,95110.75
2023-03-06T17:51:04.001Z,95117.75
2023-03-06T17:53:32.077Z,95115.19
2023-03-06T17:56:03.284Z,95117.94
2023-03-06T17:58:31.097Z,95119.53
2023-03-06T18:00:59.253Z,95121.97
2023-03-06T18:03:27.829Z,95125.31
2023-03-06T18:06:03.416Z,95127.19
2023-03-06T18:08:32.019Z,95141.97
2023-03-06T18:11:03.576Z,95135.41
2023-03-06T18:13:31.743Z,95139.44
2023-03-06T18:15:59.772Z,95135.81
2023-03-06T18:18:28.676Z,95136.94
2023-03-06T18:20:56.463Z,95138.75
2023-03-06T18:23:24.751Z,95135.75
2023-03-06T18:25:52.627Z,95139.50
2023-03-06T18:28:21.925Z,95139.13
2023-03-06T18:30:49.642Z,95142.16
2023-03-06T18:33:17.421Z,95135.63
2023-03-06T18:35:45.276Z,95138.06
2023-03-06T18:38:13.007Z,95138.66
2023-03-06T18:40:42.564Z,95136.28
2023-03-06T18:43:10.260Z,95141.03
2023-03-06T18:45:39.350Z,95140.53
2023-03-06T18:48:07.415Z,95145.38
2023-03-06T18:50:35.927Z,95148.53
2023-03-06T18:53:03.746Z,95138.38
2023-03-06T18:55:31.466Z,95137.06
2023-03-06T18:57:59.197Z,95136.28
2023-03-06T19:00:27.274Z,95134.69
2023-03-06T19:02:56.503Z,95141.31
2023-03-06T19:05:24.225Z,95135.97
2023-03-06T19:07:52.273Z,95136.97
2023-03-06T19:10:20.008Z,95155.97
2023-03-06T19:12:47.805Z,95148.19
2023-03-06T19:15:15.603Z,95155.16
2023-03-06T19:17:43.321Z,95159.72
2023-03-06T19:20:13.730Z,95153.88
2023-03-06T19:22:41.446Z,95155.41
2023-03-06T19:25:10.089Z,95144.78
2023-03-06T19:27:39.060Z,95152.78
2023-03-06T19:30:07.912Z,95163.25
2023-03-06T19:32:35.703Z,95153.44
2023-03-06T19:35:03.612Z,95148.38
2023-03-06T19:37:33.034Z,95156.69
2023-03-06T19:40:02.544Z,95148.19
2023-03-06T19:42:31.026Z,95164.75
2023-03-06T19:44:58.813Z,95154.09
2023-03-06T19:47:26.495Z,95156.75
2023-03-06T19:49:54.190Z,95153.00
2023-03-06T19:52:23.803Z,95150.13
2023-03-06T19:54:53.257Z,95156.75
2023-03-06T19:57:21.600Z,95162.88
2023-03-06T19:59:51.204Z,95157.56
2023-03-06T20:02:26.255Z,95162.41
2023-03-06T20:04:54.289Z,95156.75
2023-03-06T20:07:22.196Z,95162.09
2023-03-06T20:09:50.100Z,95153.53
2023-03-06T20:12:19.182Z,95151.66
2023-03-06T20:14:47.017Z,95148.19
2023-03-06T20:17:14.718Z,95150.56
2023-03-06T20:19:42.719Z,95154.31
2023-03-06T20:22:10.383Z,95150.78
2023-03-06T20:24:39.093Z,95151.84
2023-03-06T20:27:06.867Z,95154.31
2023-03-06T20:29:35.957Z,95154.41
2023-03-06T20:32:03.792Z,95157.31
2023-03-06T20:34:31.849Z,95159.72
2023-03-06T20:36:59.566Z,95157.25
2023-03-06T20:39:27.280Z,95159.91
2023-03-06T20:41:55.097Z,95159.72
2023-03-06T20:44:23.051Z,95168.78
2023-03-06T20:46:52.847Z,95165.84
2023-03-06T20:49:21.059Z,95165.06
2023-03-06T20:51:49.886Z,95157.84
2023-03-06T20:54:17.937Z,95157.06
2023-03-06T20:56:48.907Z,95152.00
2023-03-06T20:59:17.261Z,95157.84
2023-03-06T21:01:47.854Z,95157.78
2023-03-06T21:04:17.286Z,95160.94
2023-03-06T21:06:46.759Z,95157.56
2023-03-06T21:09:16.265Z,95154.16
2023-03-06T21:11:44.152Z,95160.06
2023-03-06T21:14:14.859Z,95149.41
2023-03-06T21:16:43.077Z,95156.31
2023-03-06T21:19:10.911Z,95159.56
2023-03-06T21:21:40.013Z,95159.50
2023-03-06T21:24:07.977Z,95148.63
2023-03-06T21:26:35.796Z,95151.56
2023-03-06T21:29:03.987Z,95152.66
2023-03-06T21:31:33.303Z,95156.38
2023-03-06T21:34:03.548Z,95150.03
2023-03-06T21:36:32.242Z,95149.25
2023-03-06T21:39:01.293Z,95144.22
2023-03-06T21:41:30.359Z,95147.38
2023-03-06T21:43:59.543Z,95139.69
2023-03-06T21:46:28.357Z,95143.66
2023-03-06T21:48:56.693Z,95145.00
2023-03-06T21:51:26.598Z,95129.78
2023-03-06T21:53:55.798Z,95136.50
2023-03-06T21:56:28.209Z,95137.38
2023-03-06T21:58:56.353Z,95127.78
2023-03-06T22:01:26.832Z,95125.69
2023-03-06T22:03:55.175Z,95125.19
2023-03-06T22:06:25.345Z,95120.72
2023-03-06T22:08:54.963Z,95125.84
2023-03-06T22:11:25.832Z,95117.25
2023-03-06T22:13:54.053Z,95119.91
2023-03-06T22:16:21.918Z,95107.19
2023-03-06T22:18:51.699Z,95113.38
2023-03-06T22:21:21.246Z,95097.56
2023-03-06T22:23:50.589Z,95099.81
2023-03-06T22:26:18.603Z,95100.03
2023-03-06T22:28:47.751Z,95090.97
2023-03-06T22:31:17.450Z,95102.28
2023-03-06T22:33:45.699Z,95093.78
2023-03-06T22:36:15.322Z,95086.06
2023-03-06T22:38:44.946Z,95088.44
2023-03-06T22:41:14.066Z,95088.63
2023-03-06T22:43:42.268Z,95076.84
2023-03-06T22:46:13.223Z,95085.94
2023-03-06T22:48:41.870Z,95082.19
2023-03-06T22:51:12.778Z,95080.00
2023-03-06T22:53:40.913Z,95074.41
2023-03-06T22:56:11.895Z,95072.53
2023-03-06T22:58:40.290Z,95071.13
2023-03-06T23:01:09.687Z,95075.91
2023-03-06T23:03:42.112Z,95074.25
2023-03-06T23:06:12.135Z,95072.84
2023-03-06T23:08:40.250Z,95076.03
2023-03-06T23:11:09.974Z,95070.00
2023-03-06T23:13:56.920Z,95076.13
2023-03-06T23:16:43.207Z,95077.41
2023-03-06T23:19:30.674Z,95075.91
2023-03-06T23:22:17.018Z,95069.13
2023-03-06T23:25:03.011Z,95065.47
2023-03-06T23:27:30.674Z,95063.66
2023-03-06T23:29:58.987Z,95073.50
2023-03-06T23:32:26.984Z,95074.41
2023-03-06T23:34:56.083Z,95066.53
2023-03-06T23:37:23.766Z,95071.84
2023-03-06T23:39:52.026Z,95069.94
2023-03-06T23:42:20.123Z,95067.53
2023-03-06T23:44:47.874Z,95065.97
2023-03-06T23:47:17.111Z,95069.34
2023-03-06T23:49:44.964Z,95073.09
2023-03-06T23:52:14.054Z,95069.34
2023-03-06T23:54:41.936Z,95068.84
2023-03-06T23:57:09.929Z,95065.09
2023-03-06T23:59:37.783Z,95064.00
